Marysville, Canada
Current Conditions -  °F | °C
As of 12:19 PM on Wednesday 28 Jan 2015 (Local Time) from CYFC Reporting Station
Light Snow Light Snow  
Wind Chill:   Ceiling: 2000
Heat Index: 18°   Visibility: 6mi
Dew Point: 12°   Wind: 17mph
Humidity: 79%   Direction: 350°N
Pressure: 29.79"   Gusts: NA
Location:  45.98°N, 66.58°W
Report Text: CYFC 281619Z AUTO 35015KT 6SM -SN BKN020 OVC027 M08/M11 A2979 RMK SLP089
Loading
Personal Weather Stations






























Interactive Weather Map New forecast layout! Learn more

10-Day Weather Forecast

Advertisements
Track Severe Weather on mobile